Latest Weather Observations for Learmonth

IDW60801

Issued at 5:43 pm WST Thursday 16 August 2018 (issued every 10 minutes, with the page automatically refreshed every 10 minutes)

About weather observations | Map of weather stations | Latest weather observations for WA | Other Formats
Station Details ID: 005007 Name: LEARMONTH AIRPORT Lat: -22.24 Lon: 114.10 Height: 5.0 m
Data from the previous 72 hours. | See also: Recent months at Learmonth
Date/Time
WST
Temp
°C
App
Temp
°C
Dew
Point
°C
Rel
Hum
%
Delta-T
°C
Wind Press
QNH
hPa
Press
MSL
hPa
Rain since
9am
mm
Dir  Spd
km/h
Gust
km/h
Spd
kts
Gust
kts
16/05:30pm 25.4 20.1 9.7 37 8.6 SSW 28 39 15 21 1013.4 1013.3 0.0
16/05:00pm 26.9 21.1 9.3 33 9.7 SW 30 37 16 20 1013.4 1013.3 0.0
16/04:30pm 28.0 23.8 8.3 29 10.7 S 20 37 11 20 1013.2 1013.1 0.0
16/04:00pm 29.0 24.7 5.1 22 12.4 E 17 22 9 12 1013.3 1013.2 0.0
16/03:30pm 29.2 24.9 5.3 22 12.4 ESE 17 24 9 13 1013.3 1013.2 0.0
16/03:00pm 29.5 25.6 3.5 19 13.1 SE 13 19 7 10 1013.6 1013.5 0.0
16/02:30pm 28.8 24.4 2.9 19 12.9 SSE 15 20 8 11 1013.9 1013.8 0.0
16/02:00pm 28.0 24.0 5.0 23 11.8 SE 15 22 8 12 1014.2 1014.1 0.0
16/01:30pm 27.2 24.0 8.6 31 10.1 E 15 19 8 10 1014.7 1014.6 0.0
16/01:00pm 26.9 23.3 8.4 31 10.0 E 17 26 9 14 1015.0 1014.9 0.0
16/12:30pm 27.1 23.4 8.0 30 10.3 ESE 17 24 9 13 1015.6 1015.5 0.0
16/12:00pm 26.3 22.7 8.3 32 9.7 SE 17 22 9 12 1016.1 1016.0 0.0
16/11:30am 25.5 21.9 8.5 34 9.2 SE 17 20 9 11 1016.6 1016.5 0.0
16/11:00am 24.6 21.0 8.5 36 8.6 SE 17 22 9 12 1017.2 1017.2 0.0
16/10:30am 24.0 20.0 8.4 37 8.3 SSE 19 24 10 13 1017.6 1017.6 0.0
16/10:00am 23.4 19.2 8.3 38 8.0 SSE 20 28 11 15 1017.8 1017.8 0.0
16/09:30am 22.7 18.6 8.8 41 7.4 SSE 20 28 11 15 1017.7 1017.7 0.0
16/09:00am 21.4 16.8 8.3 43 6.9 S 22 28 12 15 1017.6 1017.6 0.0
16/08:30am 20.1 15.6 8.4 47 6.1 S 22 28 12 15 1017.5 1017.5 0.0
16/08:00am 18.3 14.6 9.4 56 4.7 SSW 19 22 10 12 1017.5 1017.5 0.0
16/07:30am 16.5 13.6 9.7 64 3.6 SW 15 19 8 10 1017.3 1017.3 0.0
16/07:00am 15.4 12.0 9.1 66 3.2 SW 17 20 9 11 1017.2 1017.2 0.0
16/06:30am 15.4 12.4 9.1 66 3.2 SW 15 19 8 10 1017.0 1016.9 0.0
16/06:00am 16.1 13.1 9.1 63 3.6 SW 15 17 8 9 1016.8 1016.7 0.0
16/05:30am 16.5 13.4 9.0 61 3.9 SW 15 17 8 9 1016.7 1016.6 0.0
16/05:00am 16.8 13.4 9.0 60 4.0 SSW 17 20 9 11 1016.5 1016.4 0.0
16/04:30am 16.4 13.6 8.4 59 4.1 SW 13 17 7 9 1016.5 1016.4 0.0
16/04:00am 16.4 13.1 7.9 57 4.3 SW 15 20 8 11 1016.8 1016.7 0.0
16/03:30am 16.3 12.4 7.3 55 4.5 SW 17 20 9 11 1016.9 1016.8 0.0
16/03:00am 15.9 11.9 6.6 54 4.5 SW 17 20 9 11 1017.1 1017.1 0.0
16/02:30am 16.0 11.9 6.2 52 4.8 SW 17 22 9 12 1017.1 1017.1 0.0
16/02:00am 16.0 11.5 6.2 52 4.7 SW 19 24 10 13 1017.4 1017.4 0.0
16/01:30am 15.9 11.2 6.1 52 4.7 SW 20 26 11 14 1017.4 1017.4 0.0
16/01:00am 15.9 11.3 5.8 51 4.8 SW 19 24 10 13 1017.5 1017.5 0.0
16/12:30am 16.3 11.6 5.9 50 5.0 SW 20 26 11 14 1017.5 1017.5 0.0
16/12:00am 16.7 11.5 7.4 54 4.6 SW 24 30 13 16 1017.5 1017.5 0.0
 
Date/Time
WST
Temp
°C
App
Temp
°C
Dew
Point
°C
Rel
Hum
%
Delta-T
°C
Wind Press
QNH
hPa
Press
MSL
hPa
Rain since
9am
mm
Dir  Spd
km/h
Gust
km/h
Spd
kts
Gust
kts
15/11:30pm 17.0 12.8 8.2 56 4.5 SSW 20 28 11 15 1017.6 1017.6 0.0
15/11:00pm 17.1 13.0 8.5 57 4.4 SW 20 28 11 15 1017.8 1017.8 0.0
15/10:30pm 17.7 13.3 8.8 56 4.6 SSW 22 28 12 15 1017.9 1017.9 0.0
15/10:00pm 18.4 14.1 9.5 56 4.7 SSW 22 28 12 15 1017.9 1017.9 0.0
15/09:30pm 19.2 15.2 11.7 62 4.1 SW 24 32 13 17 1018.0 1018.0 0.0
15/09:00pm 19.9 16.7 14.3 70 3.2 SSW 24 30 13 16 1017.8 1017.8 0.0
15/08:30pm 20.4 17.4 14.7 70 3.3 SW 24 33 13 18 1017.7 1017.7 0.0
15/08:00pm 20.6 16.9 14.9 70 3.3 SW 28 37 15 20 1017.4 1017.4 0.0
15/07:30pm 21.0 17.4 14.2 65 4.0 SW 26 33 14 18 1017.2 1017.2 0.0
15/07:00pm 21.4 17.7 13.8 62 4.4 SW 26 35 14 19 1016.9 1016.8 0.0
15/06:30pm 22.0 18.9 14.4 62 4.5 SW 24 32 13 17 1016.7 1016.6 0.0
15/06:00pm 23.3 20.1 14.3 57 5.3 SW 24 37 13 20 1016.4 1016.3 0.0
15/05:30pm 24.6 21.7 14.1 52 6.2 SW 22 28 12 15 1016.2 1016.1 0.0
15/05:00pm 26.1 22.2 1.4 20 11.7 N 11 13 6 7 1016.1 1016.0 0.0
15/04:30pm 26.7 23.4 6.2 27 10.7 ENE 13 17 7 9 1015.9 1015.8 0.0
15/04:00pm 26.9 24.2 8.8 32 9.9 ENE 13 17 7 9 1016.1 1016.0 0.0
15/03:30pm 26.1 24.0 12.5 42 7.9 ENE 15 17 8 9 1016.2 1016.1 0.0
15/03:00pm 25.9 23.7 13.4 46 7.3 ENE 17 19 9 10 1016.4 1016.3 0.0
15/02:30pm 25.7 24.1 13.9 48 7.0 ENE 15 20 8 11 1016.7 1016.6 0.0
15/02:00pm 25.6 23.7 14.1 49 6.8 ENE 17 22 9 12 1017.2 1017.2 0.0
15/01:30pm 24.9 22.9 13.8 50 6.5 ENE 17 20 9 11 1017.7 1017.7 0.0
15/01:00pm 24.4 22.8 13.9 52 6.2 ENE 15 20 8 11 1018.2 1018.2 0.0
15/12:30pm 24.2 22.0 14.3 54 5.8 E 19 22 10 12 1018.7 1018.7 0.0
15/12:00pm 24.3 22.4 14.1 53 6.0 ESE 17 24 9 13 1019.1 1019.1 0.0
15/11:30am 24.1 22.0 13.6 52 6.1 ESE 17 24 9 13 1019.6 1019.6 0.0
15/11:00am 23.6 21.6 13.8 54 5.7 SE 17 24 9 13 1020.0 1020.0 0.0
15/10:30am 23.0 22.2 15.1 61 4.7 SE 13 20 7 11 1020.5 1020.5 0.0
15/10:00am 22.1 21.0 15.2 65 4.1 SSE 15 20 8 11 1020.7 1020.7 0.0
15/09:30am 21.1 19.6 15.2 69 3.5 SSE 17 20 9 11 1021.0 1021.0 0.0
15/09:00am 19.8 18.2 15.0 74 2.8 S 17 20 9 11 1020.9 1020.9 0.0
15/08:30am 18.3 17.0 14.8 80 2.0 SSW 15 20 8 11 1020.8 1020.8 0.0
15/08:00am 16.7 16.1 14.7 88 1.1 SW 11 15 6 8 1020.6 1020.6 0.0
15/07:30am 15.2 14.1 14.2 94 0.6 SW 13 17 7 9 1020.4 1020.4 0.0
15/07:00am 13.8 12.3 13.0 95 0.4 SW 13 15 7 8 1020.0 1020.0 0.0
15/06:30am 14.1 13.0 13.0 93 0.6 WSW 11 13 6 7 1019.5 1019.5 0.0
15/06:00am 14.8 13.4 13.5 92 0.7 SW 13 13 7 7 1019.3 1019.3 0.0
15/05:30am 15.3 14.8 13.8 91 0.8 WSW 9 11 5 6 1019.0 1019.0 0.0
15/05:00am 14.8 13.5 13.7 93 0.6 SW 13 13 7 7 1018.9 1018.9 0.0
15/04:30am 15.3 14.4 13.7 90 0.9 SW 11 13 6 7 1018.7 1018.7 0.0
15/04:16am 15.1 14.5 13.5 90 0.9 SW 9 13 5 7 1018.8 1018.8 0.0
15/04:00am 13.9 12.6 12.6 92 0.7 WSW 11 11 6 6 1019.0 1019.0 0.0
15/03:42am 12.3 10.9 11.0 92 0.7 WSW 9 11 5 6 1019.1 1019.1 0.0
15/03:30am 12.3 10.5 11.0 92 0.7 SSW 11 13 6 7 1019.1 1019.1 0.0
15/03:00am 11.3 8.2 10.2 93 0.6 S 17 19 9 10 1019.1 1019.1 0.0
15/02:30am 10.8 8.6 9.2 90 0.8 S 11 13 6 7 1019.1 1019.1 0.0
15/02:00am 11.0 8.4 9.3 89 0.8 S 13 15 7 8 1019.2 1019.2 0.0
15/01:30am 11.0 8.7 8.9 87 1.0 SSE 11 13 6 7 1019.4 1019.4 0.0
15/01:00am 11.1 9.1 8.8 86 1.1 SSW 9 11 5 6 1019.5 1019.5 0.0
15/12:30am 11.4 9.3 8.1 80 1.6 SSW 9 11 5 6 1019.7 1019.7 0.0
15/12:00am 12.3 10.7 8.2 76 2.0 S 6 7 3 4 1019.6 1019.6 0.0
 
Date/Time
WST
Temp
°C
App
Temp
°C
Dew
Point
°C
Rel
Hum
%
Delta-T
°C
Wind Press
QNH
hPa
Press
MSL
hPa
Rain since
9am
mm
Dir  Spd
km/h
Gust
km/h
Spd
kts
Gust
kts
14/11:30pm 12.6 12.2 8.1 74 2.2 CALM 0 0 0 0 1019.7 1019.7 0.0
14/11:00pm 13.2 12.9 8.5 73 2.3 CALM 0 0 0 0 1019.6 1019.6 0.0
14/10:30pm 13.5 12.2 9.2 75 2.2 SW 6 6 3 3 1019.8 1019.8 0.0
14/10:00pm 13.6 11.3 8.9 73 2.4 SW 11 11 6 6 1019.9 1019.9 0.0
14/09:30pm 13.1 10.4 7.5 69 2.7 SSW 11 11 6 6 1020.1 1020.1 0.0
14/09:00pm 15.1 14.0 6.7 57 4.1 WNW 2 6 1 3 1019.8 1019.8 0.0
14/08:30pm 16.0 14.0 6.4 53 4.7 W 6 7 3 4 1019.7 1019.7 0.0
14/08:00pm 16.4 14.6 8.1 58 4.2 SW 7 9 4 5 1019.5 1019.5 0.0
14/07:30pm 18.0 16.3 8.3 53 5.0 NW 7 9 4 5 1019.0 1019.0 0.0
14/07:00pm 17.6 16.2 10.9 65 3.6 NNW 9 11 5 6 1018.6 1018.6 0.0
14/06:30pm 18.5 16.8 11.1 62 4.0 N 11 11 6 6 1018.4 1018.4 0.0
14/06:00pm 20.4 18.1 10.5 53 5.4 N 13 19 7 10 1018.2 1018.2 0.0
14/05:30pm 22.2 18.2 4.7 32 8.6 NNE 15 19 8 10 1018.1 1018.1 0.0
14/05:00pm 23.6 18.5 0.7 22 10.5 N 17 20 9 11 1018.0 1018.0 0.0
14/04:30pm 24.5 18.9 -2.9 16 11.9 N 17 22 9 12 1017.8 1017.8 0.0
14/04:00pm 25.3 19.2 -4.1 14 12.5 N 19 28 10 15 1017.7 1017.7 0.0
14/03:30pm 25.9 20.5 -4.6 13 13.0 N 15 22 8 12 1017.7 1017.7 0.0
14/03:00pm 25.0 19.8 -0.2 19 11.5 N 17 22 9 12 1017.8 1017.8 0.0
14/02:30pm 25.2 21.3 3.2 24 10.8 N 13 19 7 10 1018.0 1018.0 0.0
14/02:00pm 23.8 22.6 12.8 50 6.3 NE 11 17 6 9 1018.4 1018.4 0.0
14/01:30pm 23.6 22.6 14.6 57 5.3 ENE 13 19 7 10 1018.7 1018.7 0.0
14/01:00pm 23.3 22.0 14.8 59 5.0 ENE 15 19 8 10 1019.0 1019.0 0.0
14/12:30pm 22.7 22.0 15.3 63 4.4 ENE 13 19 7 10 1019.5 1019.5 0.0
14/12:00pm 21.7 20.8 14.8 65 4.1 ENE 13 19 7 10 1019.9 1019.9 0.0
14/11:30am 21.2 20.3 14.8 67 3.8 NE 13 17 7 9 1020.3 1020.3 0.0
14/11:00am 20.6 20.2 15.2 71 3.2 NE 11 17 6 9 1020.7 1020.7 0.0
14/10:30am 20.0 19.7 15.4 75 2.7 ENE 11 15 6 8 1021.0 1021.0 0.0
14/10:00am 19.6 19.5 15.0 75 2.7 ENE 9 15 5 8 1021.2 1021.2 0.0
14/09:30am 19.2 19.3 15.5 79 2.2 ENE 9 13 5 7 1021.2 1021.2 0.0
14/09:29am 19.1 19.2 15.4 79 2.2 ENE 9 13 5 7 1021.2 1021.2 0.0
14/09:00am 18.5 20.3 16.5 88 1.2 E 2 11 1 6 1021.2 1021.2 0.0
14/08:30am 16.5 17.4 16.2 98 0.2 WSW 6 9 3 5 1021.1 1021.1 0.0
14/08:00am 15.1 15.9 14.9 99 0.1 SSW 4 7 2 4 1020.7 1020.7 0.0
14/07:30am 13.2 12.8 13.0 99 0.1 SSW 7 7 4 4 1020.5 1020.5 0.0
14/07:00am 12.4 11.9 12.2 99 0.1 SSW 6 7 3 4 1020.3 1020.3 0.0
14/06:30am 13.9 13.4 13.7 99 0.1 WSW 9 13 5 7 1020.2 1020.2 0.0
14/06:00am 11.0 9.5 10.7 98 0.2 WSW 9 11 5 6 1019.8 1019.8 0.0
14/05:30am 10.8 9.3 10.5 98 0.2 WSW 9 11 5 6 1019.5 1019.5 0.0
14/05:00am 11.2 10.3 10.7 97 0.3 SW 6 9 3 5 1019.2 1019.2 0.0
14/04:30am 11.0 9.5 10.5 97 0.3 WSW 9 13 5 7 1019.3 1019.3 0.0
14/04:24am 10.9 9.4 10.4 97 0.3 WSW 9 11 5 6 1019.4 1019.4 0.0
14/04:00am 9.9 8.1 9.3 96 0.3 WSW 9 13 5 7 1019.3 1019.3 0.0
14/03:58am 9.9 8.1 9.3 96 0.3 WSW 9 11 5 6 1019.3 1019.3 0.0
14/03:30am 9.5 7.9 8.7 95 0.4 SSW 7 9 4 5 1019.3 1019.3 0.0
14/03:19am 9.6 8.1 8.5 93 0.5 S 6 7 3 4 1019.5 1019.5 0.0
14/03:00am 10.0 8.5 9.2 95 0.4 S 7 9 4 5 1019.6 1019.6 0.0
14/02:51am 10.1 8.8 9.3 95 0.4 SSW 6 7 3 4 1019.7 1019.7 0.0
14/02:30am 10.1 8.6 9.3 95 0.4 SSW 7 9 4 5 1019.8 1019.8 0.0
14/02:10am 10.5 9.3 9.4 93 0.5 S 6 7 3 4 1019.8 1019.8 0.0
14/02:00am 10.7 9.9 9.6 93 0.6 S 4 7 2 4 1019.9 1019.9 0.0
14/01:30am 11.6 11.8 10.5 93 0.6 CALM 0 0 0 0 1020.0 1020.0 0.0
14/01:00am 11.4 11.5 10.3 93 0.6 CALM 0 0 0 0 1020.2 1020.2 0.0
14/12:30am 12.4 12.9 11.6 95 0.4 CALM 0 0 0 0 1020.1 1020.1 0.0
14/12:00am 12.1 12.3 10.7 91 0.7 CALM 0 0 0 0 1020.2 1020.2 0.0
 
Date/Time
WST
Temp
°C
App
Temp
°C
Dew
Point
°C
Rel
Hum
%
Delta-T
°C
Wind Press
QNH
hPa
Press
MSL
hPa
Rain since
9am
mm
Dir  Spd
km/h
Gust
km/h
Spd
kts
Gust
kts
13/11:30pm 12.9 11.7 9.7 81 1.6 N 6 6 3 3 1020.2 1020.2 0.0
13/11:00pm 14.8 14.0 11.8 82 1.6 N 7 9 4 5 1020.1 1020.1 0.0
13/10:30pm 16.3 15.1 14.1 87 1.2 NNW 13 13 7 7 1020.1 1020.1 0.0
13/10:00pm 15.7 15.1 13.4 86 1.3 NNW 9 11 5 6 1020.1 1020.1 0.0
13/09:30pm 16.2 14.8 13.5 84 1.5 NNW 13 13 7 7 1020.0 1020.0 0.0
13/09:00pm 15.6 13.5 12.5 82 1.7 N 15 15 8 8 1019.9 1019.9 0.0
13/08:30pm 16.0 14.3 12.4 79 2.0 NNW 13 15 7 8 1019.8 1019.8 0.0
13/08:00pm 17.5 16.4 13.2 76 2.4 NW 11 13 6 7 1019.7 1019.7 0.0
13/07:30pm 17.8 17.0 13.9 78 2.2 NW 11 13 6 7 1019.4 1019.4 0.0
13/07:00pm 17.5 16.1 13.4 77 2.3 N 13 13 7 7 1019.2 1019.2 0.0
13/06:30pm 18.5 18.1 14.0 75 2.6 NNW 9 11 5 6 1019.1 1019.1 0.0
13/06:00pm 19.8 19.0 14.0 69 3.3 NNE 11 13 6 7 1019.2 1019.2 0.0

Other Formats:

Comma delimited format used in spreadsheet applications
http://www.bom.gov.au/fwo/IDW60801/IDW60801.94302.axf

JavaScript Object Notation format (JSON) in row-major order
http://www.bom.gov.au/fwo/IDW60801/IDW60801.94302.json